Weather observations for the past three days for
Branson
Imperial (Metric)
Date Time (cdt) Wind (mph) Vis. (mi.) Weather Sky Cond. Temperature (ºF) Relative Humidity Wind Chill (°F) Heat Index (°F) Pressure Precipitation (in)
Air Dwpt 6 hour altimeter (in) sea level (mb) 1 hr 3 hr 6 hr
Max. Min.
04 18:45 SE 5 10.00 Fair CLR 93.2 64.4 39% 95 29.95 0.0
04 15:45 E 10 G 16 10.00 Partly Cloudy SCT070 100.4 64.4 31% 104 29.97 0.0
04 14:45 SE 8 G 16 10.00 Partly Cloudy SCT070 100.4 66.2 33% 105 29.98 0.0
04 12:45 Calm 10.00 Fair CLR 203 66.2 2% 123 30.03 0.0
04 11:45 S 7 10.00 Fair CLR 93.2 66.2 41% 96 30.06 0.0
04 10:45 S 12 10.00 Fair CLR 91.4 66.2 44% 94 30.06 0.0
04 09:45 SW 12 10.00 Fair CLR 89.6 66.2 46% 92 30.06 0.0
04 08:45 Calm 10.00 Fair CLR 84.2 68 58% 87 30.06 0.0
04 07:45 Calm 10.00 Fair CLR 77 68 74% 79 30.05 0.0
04 06:45 Calm 10.00 NULL NULL 68 68 100% 30.03 0.0
04 06:15 Calm 10.00 Fair CLR 73.4 68 83% 30.03 0.0
04 05:55 Calm 10.00 Fair CLR 75.2 68 78% 76 30.02 0.0
04 05:35 Calm 10.00 Fair CLR 75.2 68 78% 76 30.02 0.0
04 05:15 Calm 10.00 Fair CLR 75.2 68 78% 76 30.01 0.0
04 04:55 Calm 10.00 Fair CLR 77 68 74% 79 30.01 0.0
04 04:35 Calm 10.00 Fair CLR 77 68 74% 79 30.01 0.0
04 04:15 Calm 10.00 Fair CLR 78.8 68 70% 81 30 0.0
04 03:35 S 6 10.00 Fair CLR 80.6 68 66% 83 30 0.0
04 03:15 S 3 10.00 Fair CLR 78.8 69.8 74% 81 30 0.0
04 02:55 S 6 10.00 Fair CLR 78.8 69.8 74% 81 30 0.0
04 02:35 S 5 10.00 Fair CLR 78.8 68 70% 81 30 0.0
04 02:15 S 5 10.00 Fair CLR 78.8 68 70% 81 30 0.0
04 01:55 S 5 10.00 Fair CLR 80.6 68 66% 83 30 0.0
04 01:35 S 5 10.00 Fair CLR 80.6 68 66% 83 30 0.0
04 01:15 S 3 10.00 Fair CLR 80.6 68 66% 83 30 0.0
04 00:55 S 5 10.00 Fair CLR 80.6 68 66% 83 30 0.0
04 00:35 S 6 10.00 Fair CLR 80.6 68 66% 83 30 0.0
04 00:15 S 6 10.00 Fair CLR 82.4 68 62% 85 30 0.0
03 23:55 S 7 10.00 Fair CLR 82.4 68 62% 85 30 0.0
03 23:35 S 6 10.00 Fair CLR 82.4 68 62% 85 30 0.0
03 23:15 S 5 10.00 Fair CLR 82.4 66.2 58% 85 30 0.0
03 22:55 S 6 10.00 Fair CLR 82.4 66.2 58% 85 30 0.0
03 22:35 SE 6 10.00 Fair CLR 82.4 66.2 58% 85 30 0.0
03 22:15 SE 6 10.00 Fair CLR 82.4 68 62% 85 30 0.0
03 21:55 SE 6 10.00 Fair CLR 84.2 68 58% 87 30 0.0
03 21:35 S 5 10.00 Fair CLR 84.2 68 58% 87 29.99 0.0
03 21:15 SE 5 10.00 Fair CLR 84.2 68 58% 87 29.98 0.0
03 20:45 SE 5 10.00 Fair CLR 84.2 68 58% 87 29.97 0.0
03 19:45 SE 6 10.00 Fair CLR 87.8 66.2 49% 90 29.96 0.0
03 18:45 SE 7 10.00 Fair CLR 91.4 66.2 44% 94 29.96 0.0
03 17:45 S 8 10.00 Fair CLR 95 64.4 36% 97 29.95 0.0
03 16:45 SE 14 G 18 10.00 Fair CLR 96.8 62.6 32% 98 29.95 0.0
03 15:45 SE 12 10.00 Fair CLR 98.6 64.4 33% 101 29.98 0.0
03 14:45 SE 12 10.00 Fair CLR 96.8 64.4 34% 99 29.98 0.0
03 13:45 SE 9 G 18 10.00 Fair CLR 95 64.4 36% 97 30 0.0
03 12:45 S 12 G 18 10.00 A Few Clouds FEW055 93.2 66.2 41% 96 30.02 0.0
03 11:50 S 9 10.00 Fair CLR 93.2 66.2 41% 96 30.04 0.0
03 10:46 S 9 10.00 Fair CLR 93.2 66.2 41% 96 30.04 0.0
03 10:45 S 9 10.00 Fair CLR 89.6 68 49% 93 30.05 0.0
03 08:45 S 6 10.00 Fair CLR 82.4 69.8 66% 86 30.07 0.0
03 07:45 SE 6 10.00 Fair CLR 80.6 69.8 70% 84 30.07 0.0
03 06:45 Calm 10.00 Fair CLR 71.6 68 88% 30.05 0.0
03 06:15 Calm 10.00 Fair CLR 73.4 69.8 89% 30.04 0.0
03 05:55 Calm 10.00 Fair CLR 73.4 69.8 89% 30.04 0.0
03 05:35 Calm 10.00 Fair CLR 75.2 69.8 83% 75 30.04 0.0
03 05:15 Calm 10.00 Fair CLR 75.2 69.8 83% 75 30.04 0.0
03 04:55 Calm 10.00 Fair CLR 75.2 69.8 83% 75 30.04 0.0
03 04:35 Calm 10.00 Fair CLR 77 69.8 79% 79 30.04 0.0
03 04:15 S 3 10.00 Fair CLR 77 69.8 79% 79 30.04 0.0
03 03:55 Calm 10.00 Fair CLR 77 69.8 79% 79 30.03 0.0
03 03:35 S 5 10.00 Fair CLR 77 69.8 79% 79 30.03 0.0
03 03:15 S 5 10.00 Fair CLR 78.8 69.8 74% 81 30.03 0.0
03 02:55 S 5 10.00 Fair CLR 77 69.8 79% 79 30.02 0.0
03 02:35 Calm 10.00 Fair CLR 77 69.8 79% 79 30.03 0.0
03 02:15 S 5 10.00 Fair CLR 77 69.8 79% 79 30.03 0.0
03 01:55 S 5 10.00 Fair CLR 77 69.8 79% 79 30.03 0.0
03 01:35 S 6 10.00 Fair CLR 78.8 69.8 74% 81 30.03 0.0
03 01:15 S 6 10.00 Fair CLR 78.8 69.8 74% 81 30.03 0.0
03 00:55 S 5 10.00 Fair CLR 78.8 69.8 74% 81 30.02 0.0
03 00:35 SE 5 10.00 Fair CLR 78.8 69.8 74% 81 30.02 0.0
03 00:15 Calm 10.00 Fair CLR 78.8 68 70% 81 30.02 0.0
02 23:55 S 6 10.00 Fair CLR 80.6 68 66% 83 30.02 0.0
02 23:35 SE 5 10.00 Fair CLR 80.6 68 66% 83 30.02 0.0
02 23:15 S 6 10.00 Fair CLR 80.6 68 66% 83 30.02 0.0
02 22:55 S 5 10.00 Fair CLR 82.4 68 62% 85 30.02 0.0
02 22:35 S 7 10.00 Fair CLR 82.4 68 62% 85 30.02 0.0
02 22:15 S 7 10.00 Fair CLR 84.2 68 58% 87 30.02 0.0
02 21:55 S 7 10.00 Fair CLR 84.2 68 58% 87 30.02 0.0
02 21:35 S 6 10.00 Fair CLR 84.2 68 58% 87 30.01 0.0
02 21:15 S 7 10.00 Fair CLR 84.2 68 58% 87 30.01 0.0
02 20:45 S 9 10.00 Fair CLR 86 66.2 52% 88 30 0.0
02 19:45 S 9 10.00 Fair CLR 89.6 64.4 43% 91 29.98 0.0
02 18:45 S 9 10.00 Fair CLR 93.2 64.4 39% 95 29.98 0.0
02 17:45 S 5 10.00 Fair CLR 96.8 62.6 32% 98 29.99 0.0
02 16:45 S 8 10.00 Fair CLR 98.6 60.8 29% 99 29.99 0.0
02 13:45 SE 9 10.00 Fair CLR 98.6 59 27% 98 30.05 0.0
02 11:55 SE 6 G 16 10.00 Fair CLR 95 64.4 36% 97 30.08 0.0
02 10:45 S 3 10.00 Fair CLR 91.4 66.2 44% 94 30.11 0.0
02 09:45 S 6 10.00 Fair CLR 89.6 68 49% 93 30.11 0.0
02 08:45 S 6 10.00 Fair CLR 87.8 68 52% 91 30.11 0.0
02 07:45 Calm 10.00 Fair CLR 84.2 68 58% 87 30.11 0.0
02 06:45 SE 5 10.00 Fair CLR 73.4 68 83% 30.09 0.0
02 06:15 Calm 10.00 Fair CLR 73.4 68 83% 30.08 0.0
02 05:55 Calm 10.00 Fair CLR 75.2 68 78% 76 30.08 0.0
02 05:35 SE 5 10.00 Fair CLR 73.4 68 83% 30.08 0.0
02 05:15 SE 5 10.00 Fair CLR 75.2 66.2 74% 77 30.08 0.0
02 04:55 SE 5 10.00 Fair CLR 75.2 68 78% 76 30.07 0.0
02 04:35 Calm 10.00 Fair CLR 75.2 66.2 74% 77 30.07 0.0
02 04:15 Calm 10.00 Fair CLR 73.4 66.2 78% 30.07 0.0
02 03:55 Calm 10.00 Fair CLR 75.2 66.2 74% 77 30.07 0.0
02 03:35 Calm 10.00 Fair CLR 73.4 66.2 78% 30.07 0.0
02 03:15 Calm 10.00 Fair CLR 75.2 66.2 74% 77 30.07 0.0
02 02:55 Calm 10.00 Fair CLR 77 66.2 69% 79 30.07 0.0
02 02:35 S 5 10.00 Fair CLR 78.8 66.2 65% 81 30.07 0.0
02 02:15 SE 5 10.00 Fair CLR 78.8 66.2 65% 81 30.07 0.0
02 01:55 Calm 10.00 Fair CLR 80.6 66.2 62% 83 30.07 0.0
02 01:35 S 6 10.00 Fair CLR 80.6 66.2 62% 83 30.07 0.0
02 01:15 S 6 10.00 Fair CLR 80.6 66.2 62% 83 30.06 0.0
02 00:55 S 6 10.00 Fair CLR 80.6 66.2 62% 83 30.07 0.0
02 00:35 SE 6 10.00 Fair CLR 80.6 66.2 62% 83 30.07 0.0
02 00:15 S 5 10.00 Fair CLR 80.6 66.2 62% 83 30.07 0.0
01 23:55 S 3 10.00 Fair CLR 80.6 66.2 62% 83 30.06 0.0
01 23:35 S 6 10.00 Fair CLR 80.6 66.2 62% 83 30.06 0.0
01 23:15 S 5 10.00 Fair CLR 80.6 66.2 62% 83 30.06 0.0
01 22:55 S 5 10.00 Fair CLR 82.4 66.2 58% 85 30.06 0.0
01 22:35 S 5 10.00 Fair CLR 82.4 66.2 58% 85 30.06 0.0
01 22:15 S 6 10.00 Fair CLR 84.2 66.2 55% 87 30.05 0.0
01 21:55 SE 8 10.00 Fair CLR 84.2 66.2 55% 87 30.04 0.0
01 21:35 S 6 10.00 Fair CLR 84.2 66.2 55% 87 30.04 0.0
01 21:15 SE 7 10.00 Fair CLR 84.2 64.4 51% 86 30.03 0.0
01 20:45 S 5 10.00 Fair CLR 86 64.4 49% 87 30.02 0.0
01 19:45 S 5 10.00 Fair CLR 86 62.6 46% 87 30.01 0.0
Date Time (cdt) Wind (mph) Vis. (mi.) Weather Sky Cond. Air Dwpt Max. Min. Relative Humidity Wind Chill (°F) Heat Index (°F) altimeter (in) sea level (mb) 1 hr 3 hr 6 hr
6 hour
Temperature (ºF) Pressure Precipitation (in)